createdAt,value
2023-05-02T00:02:32.332Z,46.66
2023-05-02T00:05:35.823Z,46.66
2023-05-02T00:08:40.349Z,46.63
2023-05-02T00:11:43.149Z,46.61
2023-05-02T00:14:45.888Z,46.61
2023-05-02T00:17:48.697Z,46.70
2023-05-02T00:20:51.618Z,46.69
2023-05-02T00:23:56.941Z,46.69
2023-05-02T00:26:59.729Z,46.60
2023-05-02T00:30:03.140Z,46.62
2023-05-02T00:33:07.088Z,46.82
2023-05-02T00:36:15.182Z,46.72
2023-05-02T00:39:19.320Z,46.67
2023-05-02T00:42:22.179Z,46.78
2023-05-02T00:45:25.119Z,46.68
2023-05-02T00:48:28.069Z,46.72
2023-05-02T00:51:31.098Z,46.70
2023-05-02T00:54:35.277Z,46.79
2023-05-02T00:57:38.134Z,46.67
2023-05-02T01:01:02.277Z,46.63
2023-05-02T01:04:17.290Z,46.72
2023-05-02T01:07:35.914Z,46.62
2023-05-02T01:10:51.075Z,46.52
2023-05-02T01:13:55.855Z,46.54
2023-05-02T01:17:04.364Z,46.62
2023-05-02T01:20:11.100Z,46.66
2023-05-02T01:23:23.860Z,46.52
2023-05-02T01:26:36.343Z,46.57
2023-05-02T01:29:42.811Z,46.51
2023-05-02T01:32:48.311Z,46.71
2023-05-02T01:35:53.570Z,46.67
2023-05-02T01:38:57.935Z,46.71
2023-05-02T01:42:04.602Z,46.68
2023-05-02T01:45:11.460Z,46.59
2023-05-02T01:48:15.978Z,46.53
2023-05-02T01:51:21.741Z,46.51
2023-05-02T01:54:27.615Z,46.58
2023-05-02T01:57:30.613Z,46.60
2023-05-02T02:00:35.499Z,46.62
2023-05-02T02:03:38.578Z,46.45
2023-05-02T02:06:45.610Z,46.54
2023-05-02T02:09:48.587Z,46.56
2023-05-02T02:12:54.561Z,46.59
2023-05-02T02:16:02.983Z,46.63
2023-05-02T02:19:08.448Z,46.67
2023-05-02T02:22:15.220Z,46.57
2023-05-02T02:25:19.441Z,46.61
2023-05-02T02:28:23.083Z,46.60
2023-05-02T02:31:31.883Z,46.52
2023-05-02T02:34:34.833Z,46.53
2023-05-02T02:37:43.128Z,46.66
2023-05-02T02:40:48.840Z,46.62
2023-05-02T02:44:01.339Z,46.56
2023-05-02T02:47:12.649Z,46.63
2023-05-02T02:50:21.156Z,46.65
2023-05-02T02:53:28.658Z,46.60
2023-05-02T02:56:40.197Z,46.69
2023-05-02T02:59:50.779Z,46.69
2023-05-02T03:02:55.947Z,46.59
2023-05-02T03:05:59.148Z,46.65
2023-05-02T03:09:02.677Z,46.69
2023-05-02T03:12:06.512Z,46.54
2023-05-02T03:15:31.396Z,46.59
2023-05-02T03:18:37.030Z,46.57
2023-05-02T03:21:39.880Z,46.58
2023-05-02T03:24:48.937Z,46.66
2023-05-02T03:27:52.200Z,46.63
2023-05-02T03:30:55.259Z,46.53
2023-05-02T03:33:59.685Z,46.55
2023-05-02T03:37:02.535Z,46.56
2023-05-02T03:40:07.539Z,46.52
2023-05-02T03:43:11.499Z,46.50
2023-05-02T03:46:14.882Z,46.50
2023-05-02T03:49:21.852Z,46.45
2023-05-02T03:52:28.463Z,46.41
2023-05-02T03:55:31.277Z,46.37
2023-05-02T03:58:36.139Z,46.46
2023-05-02T04:01:39.549Z,46.37
2023-05-02T04:04:45.026Z,46.44
2023-05-02T04:07:51.130Z,46.43
2023-05-02T04:10:54.418Z,46.37
2023-05-02T04:13:57.757Z,46.37
2023-05-02T04:17:00.727Z,46.41
2023-05-02T04:20:16.353Z,46.52
2023-05-02T04:23:23.962Z,46.35
2023-05-02T04:26:31.711Z,46.40
2023-05-02T04:29:40.967Z,46.49
2023-05-02T04:32:45.235Z,46.33
2023-05-02T04:35:49.849Z,46.39
2023-05-02T04:38:53.961Z,46.33
2023-05-02T04:41:56.887Z,46.35
2023-05-02T04:45:02.128Z,46.38
2023-05-02T04:48:05.899Z,46.40
2023-05-02T04:51:10.376Z,46.40
2023-05-02T04:54:13.378Z,46.50
2023-05-02T04:57:18.347Z,46.41
2023-05-02T05:00:26.024Z,46.47
2023-05-02T05:03:30.000Z,46.48
2023-05-02T05:06:35.986Z,46.46
2023-05-02T05:09:40.366Z,46.42
2023-05-02T05:12:43.198Z,46.41
2023-05-02T05:15:47.086Z,46.38
2023-05-02T05:18:53.791Z,46.36
2023-05-02T05:21:57.953Z,46.38
2023-05-02T05:25:00.782Z,46.37
2023-05-02T05:28:06.644Z,46.38
2023-05-02T05:31:16.814Z,46.57
2023-05-02T05:34:22.900Z,46.49
2023-05-02T05:40:33.435Z,46.48
2023-05-02T05:43:38.096Z,46.51
2023-05-02T05:46:42.100Z,46.51
2023-05-02T05:49:47.120Z,46.38
2023-05-02T05:52:51.436Z,46.50
2023-05-02T05:55:54.696Z,46.43
2023-05-02T05:58:57.437Z,46.32
2023-05-02T06:02:00.349Z,46.40
2023-05-02T06:05:03.406Z,46.41
2023-05-02T06:08:08.061Z,46.33
2023-05-02T06:11:11.791Z,46.48
2023-05-02T06:14:14.658Z,46.43
2023-05-02T06:17:17.851Z,46.40
2023-05-02T06:20:20.713Z,46.31
2023-05-02T06:23:25.792Z,46.35
2023-05-02T06:26:28.571Z,46.38
2023-05-02T06:29:31.354Z,46.29
2023-05-02T06:32:34.221Z,46.28
2023-05-02T06:35:37.348Z,46.39
2023-05-02T06:38:41.520Z,46.30
2023-05-02T06:41:44.285Z,46.35
2023-05-02T06:44:52.562Z,46.25
2023-05-02T06:47:55.401Z,46.24
2023-05-02T06:50:58.225Z,46.31
2023-05-02T06:54:02.296Z,46.24
2023-05-02T06:57:05.119Z,46.30
2023-05-02T07:00:09.194Z,46.32
2023-05-02T07:03:12.651Z,46.40
2023-05-02T07:06:15.574Z,46.62
2023-05-02T07:09:19.757Z,46.64
2023-05-02T07:12:22.508Z,46.77
2023-05-02T07:15:25.229Z,46.65
2023-05-02T07:18:28.032Z,46.78
2023-05-02T07:21:30.864Z,46.77
2023-05-02T07:24:34.972Z,46.84
2023-05-02T07:27:37.898Z,46.87
2023-05-02T07:30:40.774Z,46.87
2023-05-02T07:33:43.522Z,46.87
2023-05-02T07:36:46.298Z,46.97
2023-05-02T07:39:50.433Z,46.94
2023-05-02T07:42:53.185Z,47.05
2023-05-02T07:45:56.253Z,47.04
2023-05-02T07:48:59.108Z,47.05
2023-05-02T07:52:01.828Z,47.07
2023-05-02T07:55:06.695Z,47.20
2023-05-02T07:58:09.466Z,47.02
2023-05-02T08:01:12.297Z,47.05
2023-05-02T08:04:15.299Z,47.00
2023-05-02T08:07:18.387Z,47.08
2023-05-02T08:10:24.256Z,47.11
2023-05-02T08:13:27.224Z,47.04
2023-05-02T08:16:30.075Z,47.06
2023-05-02T08:19:33.027Z,47.07
2023-05-02T08:22:35.812Z,47.00
2023-05-02T08:25:40.157Z,47.04
2023-05-02T08:28:42.932Z,47.14
2023-05-02T08:31:45.762Z,47.17
2023-05-02T08:34:48.598Z,47.25
2023-05-02T08:37:51.394Z,47.19
2023-05-02T08:40:55.562Z,47.18
2023-05-02T08:43:58.910Z,47.18
2023-05-02T08:47:03.057Z,47.18
2023-05-02T08:50:07.839Z,47.17
2023-05-02T08:53:11.569Z,47.27
2023-05-02T08:56:15.730Z,47.20
2023-05-02T08:59:18.731Z,47.26
2023-05-02T09:02:36.391Z,47.37
2023-05-02T09:05:42.718Z,47.31
2023-05-02T09:08:48.729Z,47.29
2023-05-02T09:11:53.506Z,47.19
2023-05-02T09:15:10.796Z,47.33
2023-05-02T09:18:21.095Z,47.74
2023-05-02T09:21:25.555Z,47.55
2023-05-02T09:24:28.795Z,47.48
2023-05-02T09:27:51.373Z,47.42
2023-05-02T09:31:08.032Z,47.55
2023-05-02T09:34:13.044Z,47.44
2023-05-02T09:37:35.898Z,47.45
2023-05-02T09:40:39.012Z,47.53
2023-05-02T09:43:43.447Z,47.32
2023-05-02T09:46:47.980Z,47.32
2023-05-02T09:49:50.797Z,47.26
2023-05-02T09:53:02.655Z,47.43
2023-05-02T09:56:06.449Z,47.30
2023-05-02T09:59:17.663Z,47.28
2023-05-02T10:02:21.873Z,47.31
2023-05-02T10:05:25.738Z,47.16
2023-05-02T10:08:29.572Z,47.17
2023-05-02T10:11:34.646Z,47.12
2023-05-02T10:14:41.655Z,47.16
2023-05-02T10:17:50.603Z,47.17
2023-05-02T10:20:58.138Z,47.09
2023-05-02T10:24:03.985Z,46.92
2023-05-02T10:27:07.405Z,47.03
2023-05-02T10:30:15.083Z,46.94
2023-05-02T10:33:19.399Z,46.92
2023-05-02T10:36:23.716Z,47.03
2023-05-02T10:39:26.756Z,47.00
2023-05-02T10:42:31.222Z,47.01
2023-05-02T10:45:36.474Z,47.01
2023-05-02T10:48:39.235Z,47.12
2023-05-02T10:51:44.288Z,47.27
2023-05-02T10:54:47.080Z,47.45
2023-05-02T10:58:24.351Z,47.60
2023-05-02T11:01:42.097Z,47.85
2023-05-02T11:05:02.535Z,48.23
2023-05-02T11:08:31.532Z,48.32
2023-05-02T11:11:41.865Z,48.67
2023-05-02T11:14:52.498Z,48.84
2023-05-02T11:18:04.093Z,49.02
2023-05-02T11:21:27.526Z,48.85
2023-05-02T11:24:40.785Z,48.90
2023-05-02T11:27:45.620Z,48.74
2023-05-02T11:30:50.930Z,48.73
2023-05-02T11:33:58.980Z,48.87
2023-05-02T11:37:02.072Z,48.94
2023-05-02T11:40:15.203Z,48.83
2023-05-02T11:43:19.827Z,48.94
2023-05-02T11:46:23.052Z,49.02
2023-05-02T11:49:27.430Z,49.20
2023-05-02T11:52:30.745Z,49.32
2023-05-02T11:55:33.605Z,49.45
2023-05-02T11:58:36.338Z,49.39
2023-05-02T12:01:49.362Z,49.19
2023-05-02T12:04:53.514Z,49.19
2023-05-02T12:07:56.299Z,49.22
2023-05-02T12:10:59.007Z,49.26
2023-05-02T12:14:01.801Z,49.09
2023-05-02T12:17:05.283Z,49.14
2023-05-02T12:20:11.186Z,49.12
2023-05-02T12:23:14.455Z,49.15
2023-05-02T12:26:18.175Z,49.19
2023-05-02T12:29:20.958Z,49.21
2023-05-02T12:32:29.879Z,49.17
2023-05-02T12:35:34.871Z,44.83
2023-05-02T12:38:37.905Z,42.75
2023-05-02T12:41:43.674Z,40.29
2023-05-02T12:44:48.433Z,40.74
2023-05-02T12:47:51.220Z,40.21
2023-05-02T12:50:56.537Z,39.80
2023-05-02T12:53:59.592Z,40.08
2023-05-02T12:57:02.981Z,39.90
2023-05-02T13:00:07.593Z,39.41
2023-05-02T13:03:11.430Z,39.70
2023-05-02T13:06:15.615Z,40.38
2023-05-02T13:09:18.718Z,40.01
2023-05-02T13:12:21.522Z,40.20
2023-05-02T13:15:24.438Z,40.32
2023-05-02T13:18:28.123Z,40.61
2023-05-02T13:21:32.614Z,40.98
2023-05-02T13:24:35.551Z,41.15
2023-05-02T13:27:38.284Z,41.58
2023-05-02T13:30:41.259Z,41.88
2023-05-02T13:33:44.038Z,42.20
2023-05-02T13:36:48.380Z,42.71
2023-05-02T13:39:51.155Z,43.17
2023-05-02T13:42:53.962Z,43.04
2023-05-02T13:45:56.684Z,43.13
2023-05-02T13:48:59.467Z,43.58
2023-05-02T13:52:03.606Z,43.64
2023-05-02T13:55:08.166Z,44.04
2023-05-02T13:58:10.934Z,44.15
2023-05-02T14:01:13.751Z,44.42
2023-05-02T14:04:16.576Z,44.50
2023-05-02T14:07:20.687Z,44.73
2023-05-02T14:10:23.444Z,45.04
2023-05-02T14:13:26.226Z,45.03
2023-05-02T14:16:30.070Z,45.09
2023-05-02T14:19:33.041Z,45.23
2023-05-02T14:22:37.195Z,45.35
2023-05-02T14:25:40.086Z,45.33
2023-05-02T14:28:42.856Z,45.26
2023-05-02T14:31:46.058Z,45.44
2023-05-02T14:34:48.853Z,45.51
2023-05-02T14:37:53.012Z,45.64
2023-05-02T14:40:56.078Z,45.75
2023-05-02T14:43:58.934Z,45.75
2023-05-02T14:47:02.403Z,45.66
2023-05-02T14:50:06.347Z,45.62
2023-05-02T14:53:11.757Z,44.04
2023-05-02T14:56:17.191Z,43.50
2023-05-02T14:59:20.099Z,43.36
2023-05-02T15:02:23.104Z,42.66
2023-05-02T15:05:26.074Z,42.69
2023-05-02T15:08:30.148Z,43.08
2023-05-02T15:11:33.116Z,43.34
2023-05-02T15:14:36.050Z,43.71
2023-05-02T15:17:39.383Z,43.88
2023-05-02T15:20:42.487Z,44.00
2023-05-02T15:23:47.149Z,44.29
2023-05-02T15:26:49.938Z,44.33
2023-05-02T15:29:52.706Z,44.39
2023-05-02T15:32:55.616Z,44.55
2023-05-02T15:35:59.344Z,44.67
2023-05-02T15:39:03.464Z,44.80
2023-05-02T15:42:06.751Z,44.85
2023-05-02T15:45:13.892Z,45.07
2023-05-02T15:48:16.615Z,45.09
2023-05-02T15:51:19.616Z,45.18
2023-05-02T15:54:24.283Z,45.09
2023-05-02T15:57:27.107Z,45.26
2023-05-02T16:00:30.359Z,45.26
2023-05-02T16:03:34.267Z,45.07
2023-05-02T16:06:37.440Z,44.93
2023-05-02T16:09:42.463Z,45.05
2023-05-02T16:12:45.207Z,45.00
2023-05-02T16:15:48.874Z,45.02
2023-05-02T16:18:51.605Z,45.05
2023-05-02T16:21:54.299Z,45.08
2023-05-02T16:24:58.456Z,45.10
2023-05-02T16:28:01.298Z,45.14
2023-05-02T16:31:07.489Z,45.20
2023-05-02T16:34:10.343Z,45.17
2023-05-02T16:37:13.677Z,45.32
2023-05-02T16:40:18.000Z,45.28
2023-05-02T16:43:21.001Z,45.25
2023-05-02T16:46:23.965Z,45.40
2023-05-02T16:49:26.781Z,45.32
2023-05-02T16:52:29.736Z,45.38
2023-05-02T16:55:33.840Z,45.33
2023-05-02T16:58:36.582Z,45.35
2023-05-02T17:01:39.426Z,45.31
2023-05-02T17:04:42.409Z,45.26
2023-05-02T17:07:46.148Z,45.34
2023-05-02T17:10:51.497Z,45.48
2023-05-02T17:13:55.009Z,45.41
2023-05-02T17:16:57.820Z,45.35
2023-05-02T17:20:01.295Z,45.31
2023-05-02T17:23:04.316Z,45.37
2023-05-02T17:26:14.356Z,45.40
2023-05-02T17:29:17.300Z,45.43
2023-05-02T17:32:20.082Z,45.43
2023-05-02T17:35:23.074Z,45.52
2023-05-02T17:38:26.699Z,45.55
2023-05-02T17:41:30.918Z,45.44
2023-05-02T17:44:36.030Z,45.74
2023-05-02T17:47:38.916Z,45.81
2023-05-02T17:50:42.064Z,45.82
2023-05-02T17:53:44.821Z,45.93
2023-05-02T17:56:50.615Z,45.94
2023-05-02T17:59:56.598Z,46.05
2023-05-02T18:02:59.764Z,45.98
2023-05-02T18:06:02.803Z,46.05
2023-05-02T18:09:05.584Z,46.11
2023-05-02T18:12:15.743Z,46.13
2023-05-02T18:15:18.765Z,46.14
2023-05-02T18:18:22.332Z,46.14
2023-05-02T18:21:25.848Z,46.07
2023-05-02T18:24:29.264Z,46.13
2023-05-02T18:27:33.397Z,46.15
2023-05-02T18:30:37.318Z,46.24
2023-05-02T18:33:41.439Z,46.28
2023-05-02T18:36:45.060Z,46.26
2023-05-02T18:39:47.863Z,46.25
2023-05-02T18:42:52.084Z,46.30
2023-05-02T18:45:54.926Z,46.33
2023-05-02T18:48:57.900Z,46.31
2023-05-02T18:52:00.969Z,46.33
2023-05-02T18:55:05.034Z,46.31
2023-05-02T18:58:09.213Z,46.41
2023-05-02T19:01:14.799Z,46.29
2023-05-02T19:04:18.708Z,46.31
2023-05-02T19:07:21.466Z,46.31
2023-05-02T19:10:24.272Z,46.31
2023-05-02T19:13:29.543Z,46.43
2023-05-02T19:16:34.836Z,46.42
2023-05-02T19:19:37.694Z,46.42
2023-05-02T19:22:40.937Z,46.59
2023-05-02T19:25:43.761Z,46.46
2023-05-02T19:28:47.901Z,46.53
2023-05-02T19:31:51.046Z,46.59
2023-05-02T19:34:54.489Z,46.52
2023-05-02T19:37:57.511Z,46.51
2023-05-02T19:41:00.824Z,46.43
2023-05-02T19:44:05.073Z,46.51
2023-05-02T19:47:07.827Z,46.41
2023-05-02T19:50:11.300Z,46.42
2023-05-02T19:53:14.104Z,46.50
2023-05-02T19:56:16.820Z,46.57
2023-05-02T19:59:20.942Z,46.65
2023-05-02T20:02:23.796Z,46.63
2023-05-02T20:05:26.692Z,46.65
2023-05-02T20:08:31.398Z,46.56
2023-05-02T20:11:34.260Z,46.58
2023-05-02T20:14:39.834Z,46.51
2023-05-02T20:17:42.605Z,46.62
2023-05-02T20:20:45.642Z,46.49
2023-05-02T20:23:48.404Z,46.50
2023-05-02T20:26:51.156Z,46.46
2023-05-02T20:29:55.304Z,46.58
2023-05-02T20:33:10.541Z,46.52
2023-05-02T20:36:18.135Z,46.57
2023-05-02T20:39:21.907Z,46.52
2023-05-02T20:42:25.606Z,46.68
2023-05-02T20:45:29.838Z,46.55
2023-05-02T20:48:34.020Z,46.41
2023-05-02T20:51:36.888Z,46.60
2023-05-02T20:54:39.651Z,46.54
2023-05-02T20:57:42.404Z,46.57
2023-05-02T21:00:52.091Z,46.50
2023-05-02T21:03:56.957Z,46.52
2023-05-02T21:07:00.082Z,46.53
2023-05-02T21:10:02.973Z,46.50
2023-05-02T21:13:05.986Z,46.50
2023-05-02T21:16:16.958Z,46.50
2023-05-02T21:19:20.125Z,46.53
2023-05-02T21:22:22.958Z,46.52
2023-05-02T21:25:25.795Z,46.53
2023-05-02T21:28:29.077Z,46.45
2023-05-02T21:31:34.438Z,46.58
2023-05-02T21:34:37.323Z,46.52
2023-05-02T21:37:40.141Z,46.21
2023-05-02T21:40:42.889Z,44.96
2023-05-02T21:43:45.889Z,44.08
2023-05-02T21:46:50.563Z,43.31
2023-05-02T21:49:54.663Z,43.10
2023-05-02T21:52:57.429Z,43.86
2023-05-02T21:56:00.218Z,42.80
2023-05-02T21:59:02.966Z,43.38
2023-05-02T22:02:07.211Z,43.43
2023-05-02T22:05:11.422Z,43.61
2023-05-02T22:08:14.357Z,43.72
2023-05-02T22:11:18.051Z,43.86
2023-05-02T22:14:22.068Z,44.00
2023-05-02T22:17:28.355Z,44.00
2023-05-02T22:20:31.876Z,44.03
2023-05-02T22:23:34.854Z,44.08
2023-05-02T22:26:37.712Z,44.16
2023-05-02T22:29:40.433Z,44.20
2023-05-02T22:32:44.508Z,44.24
2023-05-02T22:35:47.386Z,44.13
2023-05-02T22:38:50.349Z,44.19
2023-05-02T22:41:53.061Z,44.33
2023-05-02T22:44:55.793Z,44.33
2023-05-02T22:48:00.195Z,44.34
2023-05-02T22:51:03.085Z,44.37
2023-05-02T22:54:06.008Z,44.49
2023-05-02T22:57:08.814Z,44.53
2023-05-02T23:00:13.094Z,44.60
2023-05-02T23:03:17.247Z,44.75
2023-05-02T23:06:20.204Z,44.83
2023-05-02T23:09:22.981Z,44.98
2023-05-02T23:12:25.708Z,45.03
2023-05-02T23:15:28.422Z,45.15
2023-05-02T23:18:32.698Z,45.23
2023-05-02T23:21:35.425Z,45.29
2023-05-02T23:24:38.233Z,45.26
2023-05-02T23:27:41.004Z,45.12
2023-05-02T23:30:43.832Z,45.32
2023-05-02T23:33:48.099Z,45.21
2023-05-02T23:36:53.247Z,45.31
2023-05-02T23:39:57.698Z,45.25
2023-05-02T23:43:01.178Z,45.28
2023-05-02T23:46:03.891Z,45.24
2023-05-02T23:49:08.022Z,45.35
2023-05-02T23:52:10.835Z,45.39
2023-05-02T23:55:13.577Z,45.37
2023-05-02T23:58:16.524Z,45.40
